createdAt,value
2022-08-27T00:01:47.498Z,94.47
2022-08-27T00:04:11.234Z,98.67
2022-08-27T00:06:36.205Z,99.90
2022-08-27T00:08:59.874Z,95.38
2022-08-27T00:11:26.018Z,96.05
2022-08-27T00:13:50.410Z,95.64
2022-08-27T00:16:18.462Z,96.97
2022-08-27T00:18:43.974Z,99.02
2022-08-27T00:21:12.499Z,94.65
2022-08-27T00:23:36.675Z,93.10
2022-08-27T00:26:00.548Z,92.12
2022-08-27T00:28:24.265Z,95.00
2022-08-27T00:30:48.287Z,91.21
2022-08-27T00:33:13.417Z,90.52
2022-08-27T00:35:37.715Z,91.47
2022-08-27T00:38:01.691Z,93.59
2022-08-27T00:40:25.321Z,93.36
2022-08-27T00:42:49.339Z,93.56
2022-08-27T00:45:15.406Z,90.93
2022-08-27T00:47:44.859Z,91.15
2022-08-27T00:50:15.534Z,93.31
2022-08-27T00:52:47.254Z,92.55
2022-08-27T00:55:17.987Z,92.34
2022-08-27T00:57:44.761Z,92.59
2022-08-27T01:00:13.836Z,92.06
2022-08-27T01:02:38.145Z,93.10
2022-08-27T01:05:06.482Z,96.39
2022-08-27T01:07:35.062Z,96.54
2022-08-27T01:10:01.394Z,95.46
2022-08-27T01:12:25.351Z,97.76
2022-08-27T01:14:49.234Z,97.94
2022-08-27T01:17:15.740Z,97.52
2022-08-27T01:19:45.259Z,97.53
2022-08-27T01:22:21.648Z,96.25
2022-08-27T01:24:52.073Z,96.78
2022-08-27T01:27:27.960Z,98.47
2022-08-27T01:29:52.074Z,97.40
2022-08-27T01:32:19.071Z,96.46
2022-08-27T01:34:43.224Z,100.00
2022-08-27T01:37:07.882Z,97.77
2022-08-27T01:39:32.224Z,97.40
2022-08-27T01:42:03.839Z,96.12
2022-08-27T01:44:27.608Z,96.97
2022-08-27T01:46:51.226Z,94.59
2022-08-27T01:49:14.956Z,94.64
2022-08-27T01:51:38.807Z,95.75
2022-08-27T01:54:02.568Z,94.14
2022-08-27T01:56:26.148Z,93.45
2022-08-27T01:58:51.268Z,95.66
2022-08-27T02:01:17.766Z,95.31
2022-08-27T02:03:42.611Z,98.02
2022-08-27T02:06:09.294Z,96.38
2022-08-27T02:08:33.335Z,98.56
2022-08-27T02:10:57.013Z,96.23
2022-08-27T02:13:20.732Z,95.19
2022-08-27T02:15:46.358Z,95.01
2022-08-27T02:18:12.440Z,92.89
2022-08-27T02:20:37.019Z,96.13
2022-08-27T02:23:01.021Z,95.93
2022-08-27T02:25:25.199Z,95.33
2022-08-27T02:27:52.060Z,92.20
2022-08-27T02:30:19.743Z,94.14
2022-08-27T02:32:47.340Z,95.79
2022-08-27T02:35:11.466Z,95.91
2022-08-27T02:37:35.372Z,96.06
2022-08-27T02:39:59.721Z,98.10
2022-08-27T02:42:23.435Z,96.48
2022-08-27T02:44:47.253Z,94.16
2022-08-27T02:47:11.058Z,94.51
2022-08-27T02:49:36.200Z,94.29
2022-08-27T02:52:00.152Z,94.91
2022-08-27T02:54:24.951Z,95.94
2022-08-27T02:56:50.053Z,95.47
2022-08-27T02:59:13.684Z,96.84
2022-08-27T03:01:37.718Z,97.79
2022-08-27T03:04:02.327Z,95.80
2022-08-27T03:06:27.423Z,96.76
2022-08-27T03:08:52.927Z,96.10
2022-08-27T03:11:16.870Z,97.60
2022-08-27T03:13:41.150Z,96.80
2022-08-27T03:16:05.027Z,97.82
2022-08-27T03:18:27.943Z,96.44
2022-08-27T03:20:54.847Z,96.93
2022-08-27T03:23:22.385Z,97.85
2022-08-27T03:25:50.084Z,99.37
2022-08-27T03:28:22.439Z,98.13
2022-08-27T03:30:51.994Z,98.86
2022-08-27T03:33:15.921Z,99.23
2022-08-27T03:35:39.619Z,97.35
2022-08-27T03:38:03.308Z,98.77
2022-08-27T03:40:28.545Z,95.99
2022-08-27T03:42:52.195Z,96.31
2022-08-27T03:45:16.199Z,97.88
2022-08-27T03:47:40.843Z,97.39
2022-08-27T03:50:06.038Z,98.94
2022-08-27T03:52:30.274Z,99.66
2022-08-27T03:54:54.055Z,98.85
2022-08-27T03:57:19.064Z,97.52
2022-08-27T03:59:42.803Z,100.00
2022-08-27T04:02:07.331Z,99.71
2022-08-27T04:04:32.505Z,99.11
2022-08-27T04:06:59.034Z,100.00
2022-08-27T04:09:22.886Z,99.40
2022-08-27T04:11:46.716Z,99.78
2022-08-27T04:14:19.768Z,100.00
2022-08-27T04:16:48.808Z,100.00
2022-08-27T04:19:16.495Z,100.00
2022-08-27T04:21:40.539Z,98.74
2022-08-27T04:24:04.776Z,99.29
2022-08-27T04:26:29.268Z,97.32
2022-08-27T04:28:52.843Z,98.81
2022-08-27T04:31:18.180Z,95.88
2022-08-27T04:33:41.914Z,96.43
2022-08-27T04:36:14.404Z,95.72
2022-08-27T04:38:39.028Z,98.21
2022-08-27T04:41:23.255Z,97.92
2022-08-27T04:43:46.987Z,93.67
2022-08-27T04:46:10.642Z,96.85
2022-08-27T04:48:36.663Z,95.76
2022-08-27T04:51:02.584Z,97.45
2022-08-27T04:53:28.024Z,97.39
2022-08-27T04:55:54.592Z,96.83
2022-08-27T04:58:20.755Z,97.81
2022-08-27T05:00:45.109Z,99.45
2022-08-27T05:03:08.794Z,100.00
2022-08-27T05:05:33.888Z,98.36
2022-08-27T05:07:57.659Z,98.56
2022-08-27T05:10:21.228Z,99.24
2022-08-27T05:12:44.965Z,100.00
2022-08-27T05:15:09.739Z,99.84
2022-08-27T05:17:35.198Z,100.00
2022-08-27T05:19:58.972Z,99.88
2022-08-27T05:22:24.111Z,99.77
2022-08-27T05:24:50.247Z,99.70
2022-08-27T05:27:14.145Z,99.53
2022-08-27T05:29:37.722Z,98.05
2022-08-27T05:32:01.573Z,99.90
2022-08-27T05:34:27.182Z,100.00
2022-08-27T05:36:51.810Z,100.00
2022-08-27T05:39:17.083Z,99.66
2022-08-27T05:41:41.051Z,100.00
2022-08-27T05:44:37.248Z,100.00
2022-08-27T05:46:54.027Z,100.00
2022-08-27T05:49:17.710Z,100.00
2022-08-27T05:51:42.051Z,100.00
2022-08-27T05:54:09.155Z,100.00
2022-08-27T05:56:36.659Z,100.00
2022-08-27T05:59:17.551Z,100.00
2022-08-27T06:01:44.905Z,100.00
2022-08-27T06:04:09.522Z,99.97
2022-08-27T06:06:36.748Z,100.00
2022-08-27T06:09:01.186Z,100.00
2022-08-27T06:11:24.903Z,100.00
2022-08-27T06:13:50.227Z,100.00
2022-08-27T06:16:17.570Z,99.46
2022-08-27T06:18:42.015Z,99.84
2022-08-27T06:21:05.895Z,99.55
2022-08-27T06:23:30.543Z,99.65
2022-08-27T06:25:54.632Z,99.55
2022-08-27T06:28:18.314Z,99.17
2022-08-27T06:30:43.433Z,99.52
2022-08-27T06:33:07.087Z,97.93
2022-08-27T06:35:33.944Z,97.97
2022-08-27T06:37:57.707Z,99.65
2022-08-27T06:40:21.502Z,98.26
2022-08-27T06:42:45.214Z,98.81
2022-08-27T06:45:10.840Z,96.11
2022-08-27T06:47:36.059Z,97.97
2022-08-27T06:52:23.409Z,97.13
2022-08-27T06:54:47.115Z,97.82
2022-08-27T06:57:10.718Z,98.45
2022-08-27T06:59:34.594Z,97.28
2022-08-27T07:02:00.458Z,97.42
2022-08-27T07:04:32.423Z,95.54
2022-08-27T07:06:56.686Z,97.90
2022-08-27T07:09:21.083Z,97.71
2022-08-27T07:11:44.968Z,97.19
2022-08-27T07:14:09.887Z,97.52
2022-08-27T07:16:34.104Z,97.65
2022-08-27T07:19:02.894Z,98.38
2022-08-27T07:21:30.688Z,97.22
2022-08-27T07:26:23.223Z,100.00
2022-08-27T07:28:47.961Z,98.88
2022-08-27T07:31:17.415Z,97.46
2022-08-27T07:33:51.314Z,97.22
2022-08-27T07:36:17.374Z,96.95
2022-08-27T07:38:42.580Z,96.86
2022-08-27T07:41:07.167Z,97.78
2022-08-27T07:43:47.866Z,97.63
2022-08-27T07:46:11.581Z,97.02
2022-08-27T07:48:36.667Z,96.09
2022-08-27T07:51:05.250Z,96.58
2022-08-27T07:53:29.041Z,96.92
2022-08-27T07:55:54.387Z,97.05
2022-08-27T07:58:18.810Z,95.51
2022-08-27T08:00:44.155Z,97.22
2022-08-27T08:03:07.786Z,96.91
2022-08-27T08:05:31.811Z,96.39
2022-08-27T08:07:55.414Z,94.10
2022-08-27T08:10:20.686Z,95.01
2022-08-27T08:12:45.870Z,96.77
2022-08-27T08:15:13.078Z,96.44
2022-08-27T08:17:37.507Z,96.59
2022-08-27T08:20:24.017Z,97.66
2022-08-27T08:22:44.887Z,96.03
2022-08-27T08:25:10.575Z,95.17
2022-08-27T08:27:36.623Z,94.64
2022-08-27T08:30:01.799Z,96.12
2022-08-27T08:32:25.496Z,94.85
2022-08-27T08:34:49.210Z,96.13
2022-08-27T08:37:14.659Z,96.77
2022-08-27T08:39:39.380Z,94.98
2022-08-27T08:42:06.679Z,97.32
2022-08-27T08:44:37.474Z,94.45
2022-08-27T08:47:09.554Z,93.39
2022-08-27T08:49:48.407Z,92.63
2022-08-27T08:52:31.205Z,92.30
2022-08-27T08:54:57.700Z,92.71
2022-08-27T08:57:29.210Z,93.55
2022-08-27T09:00:02.995Z,92.97
2022-08-27T09:02:29.073Z,92.58
2022-08-27T09:04:52.726Z,91.66
2022-08-27T09:07:23.925Z,93.53
2022-08-27T09:09:53.149Z,90.76
2022-08-27T09:12:22.410Z,91.19
2022-08-27T09:14:53.936Z,91.51
2022-08-27T09:17:17.983Z,91.92
2022-08-27T09:19:44.041Z,92.82
2022-08-27T09:22:17.815Z,92.47
2022-08-27T09:25:05.403Z,93.96
2022-08-27T09:27:29.708Z,93.52
2022-08-27T09:29:57.172Z,93.13
2022-08-27T09:32:26.128Z,92.03
2022-08-27T09:34:51.863Z,92.75
2022-08-27T09:37:20.587Z,93.54
2022-08-27T09:39:52.260Z,92.12
2022-08-27T09:42:31.054Z,92.88
2022-08-27T09:44:55.830Z,91.85
2022-08-27T09:47:19.479Z,92.57
2022-08-27T09:49:44.163Z,94.15
2022-08-27T09:52:09.421Z,91.86
2022-08-27T09:54:41.965Z,92.75
2022-08-27T09:57:07.842Z,91.81
2022-08-27T09:59:37.503Z,92.37
2022-08-27T10:02:14.752Z,92.29
2022-08-27T10:04:50.946Z,91.41
2022-08-27T10:07:38.202Z,91.58
2022-08-27T10:10:11.967Z,91.80
2022-08-27T10:12:48.042Z,91.79
2022-08-27T10:15:15.718Z,88.18
2022-08-27T10:17:52.543Z,87.76
2022-08-27T10:20:29.594Z,91.31
2022-08-27T10:23:08.946Z,91.79
2022-08-27T10:25:47.709Z,89.01
2022-08-27T10:28:26.533Z,90.54
2022-08-27T10:31:08.339Z,90.14
2022-08-27T10:33:41.529Z,88.13
2022-08-27T10:36:19.529Z,88.22
2022-08-27T10:38:52.079Z,88.62
2022-08-27T10:41:28.088Z,90.84
2022-08-27T10:44:34.622Z,88.51
2022-08-27T10:47:14.959Z,89.50
2022-08-27T10:49:48.310Z,88.15
2022-08-27T10:52:20.003Z,88.25
2022-08-27T10:54:53.111Z,88.19
2022-08-27T10:57:45.494Z,87.36
2022-08-27T11:00:34.141Z,87.61
2022-08-27T11:03:06.630Z,87.31
2022-08-27T11:05:34.299Z,86.46
2022-08-27T11:08:05.347Z,87.09
2022-08-27T11:10:34.537Z,88.53
2022-08-27T11:13:05.579Z,86.58
2022-08-27T11:15:35.195Z,87.92
2022-08-27T11:18:05.347Z,86.03
2022-08-27T11:20:36.349Z,85.44
2022-08-27T11:23:06.034Z,85.69
2022-08-27T11:25:48.675Z,84.01
2022-08-27T11:28:13.698Z,86.95
2022-08-27T11:30:52.021Z,84.07
2022-08-27T11:33:22.461Z,83.55
2022-08-27T11:36:06.775Z,84.54
2022-08-27T11:38:59.186Z,83.72
2022-08-27T11:41:56.553Z,84.69
2022-08-27T11:44:23.763Z,82.39
2022-08-27T11:46:52.105Z,83.94
2022-08-27T11:49:28.568Z,84.48
2022-08-27T11:52:04.380Z,83.45
2022-08-27T11:54:32.032Z,84.97
2022-08-27T11:56:57.143Z,84.40
2022-08-27T11:59:31.232Z,85.00
2022-08-27T12:01:57.664Z,83.52
2022-08-27T12:04:34.466Z,86.06
2022-08-27T12:07:07.265Z,85.37
2022-08-27T12:09:31.395Z,85.27
2022-08-27T12:12:06.631Z,83.47
2022-08-27T12:14:48.751Z,81.87
2022-08-27T12:17:24.814Z,82.81
2022-08-27T12:20:10.089Z,82.84
2022-08-27T12:23:07.743Z,83.05
2022-08-27T12:25:31.540Z,81.42
2022-08-27T12:28:04.976Z,83.19
2022-08-27T12:30:33.757Z,82.74
2022-08-27T12:32:59.859Z,84.70
2022-08-27T12:35:31.112Z,84.29
2022-08-27T12:37:57.916Z,82.07
2022-08-27T12:40:25.601Z,80.46
2022-08-27T12:42:49.544Z,81.91
2022-08-27T12:45:24.623Z,81.87
2022-08-27T12:47:50.912Z,79.39
2022-08-27T12:50:15.536Z,77.27
2022-08-27T12:53:22.329Z,79.55
2022-08-27T12:56:01.651Z,77.38
2022-08-27T12:58:41.947Z,79.85
2022-08-27T13:01:31.022Z,75.95
2022-08-27T13:03:56.305Z,76.62
2022-08-27T13:06:23.025Z,76.00
2022-08-27T13:08:47.467Z,74.59
2022-08-27T13:11:21.881Z,72.44
2022-08-27T13:13:45.771Z,73.53
2022-08-27T13:16:09.482Z,74.73
2022-08-27T13:18:35.052Z,74.51
2022-08-27T13:21:05.772Z,74.97
2022-08-27T13:23:30.060Z,75.72
2022-08-27T13:26:04.067Z,74.02
2022-08-27T13:28:30.746Z,72.52
2022-08-27T13:30:54.939Z,73.74
2022-08-27T13:33:24.423Z,72.11
2022-08-27T13:35:49.644Z,72.63
2022-08-27T13:38:13.479Z,71.96
2022-08-27T13:40:50.207Z,72.11
2022-08-27T13:43:15.607Z,71.99
2022-08-27T13:45:40.570Z,72.00
2022-08-27T13:48:05.044Z,69.28
2022-08-27T13:50:32.239Z,69.60
2022-08-27T13:53:25.586Z,71.45
2022-08-27T13:55:50.746Z,69.68
2022-08-27T13:58:19.743Z,67.31
2022-08-27T14:00:44.755Z,72.38
2022-08-27T14:03:31.691Z,66.98
2022-08-27T14:05:56.875Z,68.90
2022-08-27T14:08:23.189Z,68.97
2022-08-27T14:10:49.922Z,69.34
2022-08-27T14:13:24.599Z,68.85
2022-08-27T14:15:50.466Z,70.04
2022-08-27T14:18:42.155Z,68.32
2022-08-27T14:21:09.385Z,69.32
2022-08-27T14:23:34.404Z,69.45
2022-08-27T14:26:00.618Z,68.05
2022-08-27T14:28:24.275Z,68.79
2022-08-27T14:30:51.039Z,69.96
2022-08-27T14:33:17.363Z,71.68
2022-08-27T14:35:41.751Z,69.74
2022-08-27T14:38:14.331Z,69.62
2022-08-27T14:40:39.971Z,69.68
2022-08-27T14:43:03.651Z,68.52
2022-08-27T14:45:27.431Z,69.25
2022-08-27T14:47:52.408Z,71.08
2022-08-27T14:50:16.380Z,69.46
2022-08-27T14:52:40.812Z,68.57
2022-08-27T14:55:07.792Z,67.69
2022-08-27T14:57:35.536Z,67.35
2022-08-27T14:59:59.363Z,70.34
2022-08-27T15:02:23.786Z,69.23
2022-08-27T15:04:47.942Z,70.29
2022-08-27T15:07:11.746Z,72.39
2022-08-27T15:09:36.008Z,71.95
2022-08-27T15:12:00.624Z,72.54
2022-08-27T15:14:28.198Z,72.53
2022-08-27T15:16:53.491Z,73.24
2022-08-27T15:19:17.318Z,71.35
2022-08-27T15:21:42.851Z,74.62
2022-08-27T15:24:14.556Z,73.82
2022-08-27T15:26:38.265Z,75.56
2022-08-27T15:29:06.341Z,75.38
2022-08-27T15:31:31.984Z,75.90
2022-08-27T15:33:55.627Z,75.99
2022-08-27T15:36:19.623Z,75.56
2022-08-27T15:38:43.376Z,75.39
2022-08-27T15:41:07.708Z,75.60
2022-08-27T15:43:31.451Z,76.69
2022-08-27T15:45:55.248Z,78.05
2022-08-27T15:48:21.215Z,76.11
2022-08-27T15:50:45.068Z,76.08
2022-08-27T15:53:11.211Z,77.50
2022-08-27T15:55:38.373Z,77.23
2022-08-27T15:58:02.161Z,76.73
2022-08-27T16:00:26.769Z,79.86
2022-08-27T16:02:51.504Z,77.07
2022-08-27T16:05:17.719Z,78.15
2022-08-27T16:07:41.359Z,79.76
2022-08-27T16:10:06.704Z,79.41
2022-08-27T16:12:30.347Z,77.93
2022-08-27T16:14:54.123Z,77.63
2022-08-27T16:17:17.788Z,78.74
2022-08-27T16:19:42.345Z,81.17
2022-08-27T16:22:08.311Z,80.58
2022-08-27T16:24:32.266Z,83.05
2022-08-27T16:26:55.974Z,82.50
2022-08-27T16:29:19.667Z,82.03
2022-08-27T16:31:43.872Z,82.80
2022-08-27T16:34:16.064Z,84.25
2022-08-27T16:36:40.571Z,85.52
2022-08-27T16:39:05.731Z,83.30
2022-08-27T16:41:29.542Z,83.90
2022-08-27T16:43:53.336Z,84.49
2022-08-27T16:46:17.651Z,84.19
2022-08-27T16:49:01.428Z,84.22
2022-08-27T16:51:34.454Z,83.78
2022-08-27T16:53:58.691Z,82.99
2022-08-27T16:56:28.324Z,82.62
2022-08-27T16:58:52.838Z,82.29
2022-08-27T17:01:19.769Z,82.23
2022-08-27T17:04:07.329Z,84.67
2022-08-27T17:06:31.016Z,84.45
2022-08-27T17:08:56.075Z,85.80
2022-08-27T17:11:26.866Z,86.55
2022-08-27T17:13:53.367Z,85.67
2022-08-27T17:16:20.115Z,86.58
2022-08-27T17:18:44.516Z,85.69
2022-08-27T17:21:08.419Z,84.80
2022-08-27T17:23:37.756Z,82.90
2022-08-27T17:26:01.595Z,83.04
2022-08-27T17:28:26.747Z,84.27
2022-08-27T17:30:50.695Z,83.88
2022-08-27T17:33:24.240Z,84.13
2022-08-27T17:35:48.027Z,83.99
2022-08-27T17:38:11.762Z,84.68
2022-08-27T17:40:35.856Z,84.98
2022-08-27T17:42:59.672Z,85.43
2022-08-27T17:45:24.780Z,84.60
2022-08-27T17:47:48.467Z,86.29
2022-08-27T17:50:12.568Z,86.51
2022-08-27T17:52:36.976Z,86.35
2022-08-27T17:55:00.646Z,84.53
2022-08-27T17:57:27.189Z,84.21
2022-08-27T17:59:52.284Z,83.72
2022-08-27T18:02:25.131Z,82.97
2022-08-27T18:04:49.072Z,85.36
2022-08-27T18:07:12.815Z,85.04
2022-08-27T18:09:36.587Z,84.94
2022-08-27T18:12:00.376Z,85.03
2022-08-27T18:14:24.031Z,84.65
2022-08-27T18:16:48.011Z,84.90
2022-08-27T18:19:13.321Z,84.21
2022-08-27T18:21:37.486Z,84.65
2022-08-27T18:24:09.988Z,85.04
2022-08-27T18:26:35.881Z,85.05
2022-08-27T18:29:00.119Z,84.56
2022-08-27T18:31:28.869Z,86.63
2022-08-27T18:33:52.547Z,84.30
2022-08-27T18:36:17.623Z,84.37
2022-08-27T18:38:41.339Z,84.28
2022-08-27T18:41:05.183Z,84.93
2022-08-27T18:43:35.048Z,84.23
2022-08-27T18:45:58.786Z,84.37
2022-08-27T18:48:23.872Z,86.41
2022-08-27T18:50:52.303Z,84.02
2022-08-27T18:53:21.507Z,83.94
2022-08-27T18:55:45.604Z,84.19
2022-08-27T18:58:09.391Z,84.56
2022-08-27T19:00:33.146Z,84.99
2022-08-27T19:02:57.371Z,84.89
2022-08-27T19:05:24.163Z,83.33
2022-08-27T19:07:47.863Z,83.20
2022-08-27T19:10:14.191Z,83.77
2022-08-27T19:12:37.899Z,83.75
2022-08-27T19:15:01.544Z,85.00
2022-08-27T19:17:29.223Z,84.08
2022-08-27T19:19:53.310Z,85.06
2022-08-27T19:22:17.072Z,84.00
2022-08-27T19:24:40.743Z,84.56
2022-08-27T19:27:06.279Z,84.36
2022-08-27T19:29:29.935Z,84.84
2022-08-27T19:31:53.736Z,84.17
2022-08-27T19:34:17.547Z,83.56
2022-08-27T19:36:43.895Z,83.77
2022-08-27T19:39:08.827Z,84.91
2022-08-27T19:41:32.709Z,85.76
2022-08-27T19:43:57.951Z,86.42
2022-08-27T19:46:23.509Z,87.36
2022-08-27T19:48:47.939Z,85.04
2022-08-27T19:51:11.630Z,85.08
2022-08-27T19:53:35.528Z,83.42
2022-08-27T19:55:59.354Z,84.69
2022-08-27T19:58:23.499Z,83.86
2022-08-27T20:00:49.251Z,85.29
2022-08-27T20:03:13.446Z,86.46
2022-08-27T20:05:37.892Z,86.10
2022-08-27T20:08:01.627Z,85.76
2022-08-27T20:10:28.667Z,87.17
2022-08-27T20:13:00.183Z,86.74
2022-08-27T20:15:24.455Z,86.06
2022-08-27T20:17:51.585Z,86.48
2022-08-27T20:20:17.562Z,87.22
2022-08-27T20:22:41.295Z,86.23
2022-08-27T20:25:05.675Z,86.46
2022-08-27T20:27:29.546Z,88.50
2022-08-27T20:29:54.939Z,87.41
2022-08-27T20:32:20.355Z,89.75
2022-08-27T20:34:45.476Z,88.76
2022-08-27T20:37:09.591Z,88.25
2022-08-27T20:39:33.644Z,91.01
2022-08-27T20:41:57.335Z,91.23
2022-08-27T20:44:21.011Z,90.17
2022-08-27T20:46:48.916Z,89.14
2022-08-27T20:49:15.903Z,90.53
2022-08-27T20:52:01.866Z,89.74
2022-08-27T20:54:24.798Z,88.89
2022-08-27T20:56:52.388Z,88.79
2022-08-27T20:59:33.927Z,89.79
2022-08-27T21:01:57.830Z,90.71
2022-08-27T21:04:21.492Z,89.36
2022-08-27T21:06:46.542Z,89.58
2022-08-27T21:09:10.196Z,89.30
2022-08-27T21:11:34.019Z,88.76
2022-08-27T21:13:57.731Z,89.80
2022-08-27T21:16:21.540Z,90.10
2022-08-27T21:18:45.247Z,89.24
2022-08-27T21:21:10.224Z,90.74
2022-08-27T21:23:36.674Z,89.26
2022-08-27T21:26:04.647Z,91.36
2022-08-27T21:28:28.524Z,90.89
2022-08-27T21:30:52.218Z,90.61
2022-08-27T21:33:15.871Z,89.16
2022-08-27T21:35:39.494Z,90.84
2022-08-27T21:38:03.371Z,91.33
2022-08-27T21:40:30.014Z,91.39
2022-08-27T21:42:53.848Z,91.90
2022-08-27T21:45:19.720Z,92.18
2022-08-27T21:47:43.687Z,93.19
2022-08-27T21:50:09.855Z,92.04
2022-08-27T21:52:33.522Z,93.34
2022-08-27T21:54:57.167Z,94.92
2022-08-27T21:57:22.216Z,95.97
2022-08-27T21:59:48.580Z,96.12
2022-08-27T22:02:35.685Z,96.28
2022-08-27T22:04:56.634Z,96.25
2022-08-27T22:07:20.299Z,97.37
2022-08-27T22:09:44.027Z,97.05
2022-08-27T22:12:08.367Z,98.42
2022-08-27T22:14:33.550Z,98.12
2022-08-27T22:16:57.511Z,97.12
2022-08-27T22:19:21.546Z,96.30
2022-08-27T22:21:45.990Z,98.82
2022-08-27T22:24:10.206Z,99.10
2022-08-27T22:26:33.935Z,98.81
2022-08-27T22:28:57.758Z,97.14
2022-08-27T22:31:23.660Z,95.83
2022-08-27T22:33:47.599Z,95.59
2022-08-27T22:36:11.591Z,96.68
2022-08-27T22:38:35.766Z,97.54
2022-08-27T22:40:59.619Z,97.17
2022-08-27T22:43:24.954Z,96.50
2022-08-27T22:45:48.622Z,96.11
2022-08-27T22:48:13.890Z,95.20
2022-08-27T22:50:37.859Z,96.06
2022-08-27T22:53:01.678Z,96.87
2022-08-27T22:55:26.126Z,96.33
2022-08-27T22:57:51.805Z,96.23
2022-08-27T23:00:21.207Z,95.62
2022-08-27T23:02:45.680Z,95.70
2022-08-27T23:05:11.254Z,93.73
2022-08-27T23:07:35.228Z,95.75
2022-08-27T23:09:58.921Z,96.09
2022-08-27T23:12:23.750Z,96.61
2022-08-27T23:14:47.423Z,96.02
2022-08-27T23:17:11.115Z,95.94
2022-08-27T23:19:34.879Z,96.11
2022-08-27T23:22:00.300Z,95.62
2022-08-27T23:24:24.099Z,98.38
2022-08-27T23:27:05.134Z,96.94
2022-08-27T23:29:29.367Z,97.13
2022-08-27T23:31:54.035Z,97.28
2022-08-27T23:34:17.794Z,97.13
2022-08-27T23:36:41.468Z,95.47
2022-08-27T23:39:06.735Z,95.55
2022-08-27T23:41:30.613Z,96.53
2022-08-27T23:43:54.395Z,96.50
2022-08-27T23:46:18.189Z,95.78
2022-08-27T23:48:42.202Z,94.45
2022-08-27T23:51:06.241Z,96.45
2022-08-27T23:53:29.968Z,95.70
2022-08-27T23:55:55.128Z,94.52
2022-08-27T23:58:18.849Z,97.37
